sensor_id;sensor_type;location;lat;lon;timestamp;temperature;humidity
40808;DHT22;26523;52.504;13.498;2023-04-24T00:02:23;10.60;99.90
40808;DHT22;26523;52.504;13.498;2023-04-24T00:04:49;10.60;99.90
40808;DHT22;26523;52.504;13.498;2023-04-24T00:07:15;10.50;99.90
40808;DHT22;26523;52.504;13.498;2023-04-24T00:09:45;10.50;99.90
40808;DHT22;26523;52.504;13.498;2023-04-24T00:12:11;10.60;99.90
40808;DHT22;26523;52.504;13.498;2023-04-24T00:14:37;10.60;99.90
40808;DHT22;26523;52.504;13.498;2023-04-24T00:17:03;10.60;99.90
40808;DHT22;26523;52.504;13.498;2023-04-24T00:19:29;10.50;99.90
40808;DHT22;26523;52.504;13.498;2023-04-24T00:21:55;10.50;99.90
40808;DHT22;26523;52.504;13.498;2023-04-24T00:24:20;10.50;99.90
40808;DHT22;26523;52.504;13.498;2023-04-24T00:26:46;10.50;99.90
40808;DHT22;26523;52.504;13.498;2023-04-24T00:29:12;10.50;99.90
40808;DHT22;26523;52.504;13.498;2023-04-24T00:31:38;10.50;99.90
40808;DHT22;26523;52.504;13.498;2023-04-24T00:34:04;10.50;99.90
40808;DHT22;26523;52.504;13.498;2023-04-24T00:36:30;10.40;99.90
40808;DHT22;26523;52.504;13.498;2023-04-24T00:38:56;10.40;99.90
40808;DHT22;26523;52.504;13.498;2023-04-24T00:41:23;10.30;99.90
40808;DHT22;26523;52.504;13.498;2023-04-24T00:43:48;10.30;99.90
40808;DHT22;26523;52.504;13.498;2023-04-24T00:46:14;10.30;99.90
40808;DHT22;26523;52.504;13.498;2023-04-24T00:48:41;10.30;99.90
40808;DHT22;26523;52.504;13.498;2023-04-24T00:51:07;10.30;99.90
40808;DHT22;26523;52.504;13.498;2023-04-24T00:53:33;10.30;99.90
40808;DHT22;26523;52.504;13.498;2023-04-24T00:55:58;10.20;99.90
40808;DHT22;26523;52.504;13.498;2023-04-24T00:58:25;10.20;99.90
40808;DHT22;26523;52.504;13.498;2023-04-24T01:00:52;10.20;99.90
40808;DHT22;26523;52.504;13.498;2023-04-24T01:03:24;10.20;99.90
40808;DHT22;26523;52.504;13.498;2023-04-24T01:05:52;10.10;99.90
40808;DHT22;26523;52.504;13.498;2023-04-24T01:08:18;10.10;99.90
40808;DHT22;26523;52.504;13.498;2023-04-24T01:10:46;10.10;99.90
40808;DHT22;26523;52.504;13.498;2023-04-24T01:13:12;10.10;99.90
40808;DHT22;26523;52.504;13.498;2023-04-24T01:15:38;10.20;99.90
40808;DHT22;26523;52.504;13.498;2023-04-24T01:18:04;10.10;99.90
40808;DHT22;26523;52.504;13.498;2023-04-24T01:20:30;10.20;99.90
40808;DHT22;26523;52.504;13.498;2023-04-24T01:22:57;10.20;99.90
40808;DHT22;26523;52.504;13.498;2023-04-24T01:25:24;10.30;99.90
40808;DHT22;26523;52.504;13.498;2023-04-24T01:27:51;10.40;99.90
40808;DHT22;26523;52.504;13.498;2023-04-24T01:30:18;10.30;99.90
40808;DHT22;26523;52.504;13.498;2023-04-24T01:32:44;10.40;99.90
40808;DHT22;26523;52.504;13.498;2023-04-24T01:38:46;10.40;99.90
40808;DHT22;26523;52.504;13.498;2023-04-24T01:41:12;10.40;99.90
40808;DHT22;26523;52.504;13.498;2023-04-24T01:43:37;10.40;99.90
40808;DHT22;26523;52.504;13.498;2023-04-24T01:46:03;10.50;99.90
40808;DHT22;26523;52.504;13.498;2023-04-24T01:48:29;10.40;99.90
40808;DHT22;26523;52.504;13.498;2023-04-24T01:50:56;10.40;99.90
40808;DHT22;26523;52.504;13.498;2023-04-24T01:53:22;10.40;99.90
40808;DHT22;26523;52.504;13.498;2023-04-24T01:55:48;10.40;99.90
40808;DHT22;26523;52.504;13.498;2023-04-24T01:58:14;10.30;99.90
40808;DHT22;26523;52.504;13.498;2023-04-24T02:00:40;10.30;99.90
40808;DHT22;26523;52.504;13.498;2023-04-24T02:03:05;10.30;99.90
40808;DHT22;26523;52.504;13.498;2023-04-24T02:05:31;10.20;99.90
40808;DHT22;26523;52.504;13.498;2023-04-24T02:07:56;10.20;99.90
40808;DHT22;26523;52.504;13.498;2023-04-24T02:10:22;10.20;99.90
40808;DHT22;26523;52.504;13.498;2023-04-24T02:12:48;10.20;99.90
40808;DHT22;26523;52.504;13.498;2023-04-24T02:15:13;10.20;99.90
40808;DHT22;26523;52.504;13.498;2023-04-24T02:17:40;10.20;99.90
40808;DHT22;26523;52.504;13.498;2023-04-24T02:20:07;10.20;99.90
40808;DHT22;26523;52.504;13.498;2023-04-24T02:22:32;10.20;99.90
40808;DHT22;26523;52.504;13.498;2023-04-24T02:24:58;10.30;99.90
40808;DHT22;26523;52.504;13.498;2023-04-24T02:27:24;10.30;99.90
40808;DHT22;26523;52.504;13.498;2023-04-24T02:29:49;10.30;99.90
40808;DHT22;26523;52.504;13.498;2023-04-24T02:32:15;10.30;99.90
40808;DHT22;26523;52.504;13.498;2023-04-24T02:34:41;10.40;99.90
40808;DHT22;26523;52.504;13.498;2023-04-24T02:37:07;10.40;99.90
40808;DHT22;26523;52.504;13.498;2023-04-24T02:39:32;10.40;99.90
40808;DHT22;26523;52.504;13.498;2023-04-24T02:41:58;10.40;99.90
40808;DHT22;26523;52.504;13.498;2023-04-24T02:44:23;10.40;99.90
40808;DHT22;26523;52.504;13.498;2023-04-24T02:46:49;10.40;99.90
40808;DHT22;26523;52.504;13.498;2023-04-24T02:49:14;10.40;99.90
40808;DHT22;26523;52.504;13.498;2023-04-24T02:51:40;10.40;99.90
40808;DHT22;26523;52.504;13.498;2023-04-24T02:54:10;10.50;99.90
40808;DHT22;26523;52.504;13.498;2023-04-24T02:56:36;10.50;99.90
40808;DHT22;26523;52.504;13.498;2023-04-24T02:59:02;10.60;99.90
40808;DHT22;26523;52.504;13.498;2023-04-24T03:01:28;10.50;99.90
40808;DHT22;26523;52.504;13.498;2023-04-24T03:03:53;10.60;99.90
40808;DHT22;26523;52.504;13.498;2023-04-24T03:06:19;10.50;99.90
40808;DHT22;26523;52.504;13.498;2023-04-24T03:08:46;10.60;99.90
40808;DHT22;26523;52.504;13.498;2023-04-24T03:11:12;10.60;99.90
40808;DHT22;26523;52.504;13.498;2023-04-24T03:13:37;10.70;99.90
40808;DHT22;26523;52.504;13.498;2023-04-24T03:16:03;10.70;99.90
40808;DHT22;26523;52.504;13.498;2023-04-24T03:18:29;10.70;99.90
40808;DHT22;26523;52.504;13.498;2023-04-24T03:20:54;10.80;99.90
40808;DHT22;26523;52.504;13.498;2023-04-24T03:23:20;10.80;99.90
40808;DHT22;26523;52.504;13.498;2023-04-24T03:25:46;10.80;99.90
40808;DHT22;26523;52.504;13.498;2023-04-24T03:28:13;10.90;99.90
40808;DHT22;26523;52.504;13.498;2023-04-24T03:30:39;10.90;99.90
40808;DHT22;26523;52.504;13.498;2023-04-24T03:33:04;10.90;99.90
40808;DHT22;26523;52.504;13.498;2023-04-24T03:35:30;10.90;99.90
40808;DHT22;26523;52.504;13.498;2023-04-24T03:37:56;11.10;99.90
40808;DHT22;26523;52.504;13.498;2023-04-24T03:40:22;11.10;99.90
40808;DHT22;26523;52.504;13.498;2023-04-24T03:42:47;11.10;99.90
40808;DHT22;26523;52.504;13.498;2023-04-24T03:45:13;11.10;99.90
40808;DHT22;26523;52.504;13.498;2023-04-24T03:47:39;11.20;99.90
40808;DHT22;26523;52.504;13.498;2023-04-24T03:50:05;11.20;99.90
40808;DHT22;26523;52.504;13.498;2023-04-24T03:52:30;11.30;99.90
40808;DHT22;26523;52.504;13.498;2023-04-24T03:54:56;11.30;99.90
40808;DHT22;26523;52.504;13.498;2023-04-24T03:57:22;11.40;99.90
40808;DHT22;26523;52.504;13.498;2023-04-24T03:59:47;11.40;99.90
40808;DHT22;26523;52.504;13.498;2023-04-24T04:02:13;11.40;99.90
40808;DHT22;26523;52.504;13.498;2023-04-24T04:04:39;11.40;99.90
40808;DHT22;26523;52.504;13.498;2023-04-24T04:07:04;11.40;99.90
40808;DHT22;26523;52.504;13.498;2023-04-24T04:09:30;11.40;99.90
40808;DHT22;26523;52.504;13.498;2023-04-24T04:11:56;11.40;99.90
40808;DHT22;26523;52.504;13.498;2023-04-24T04:14:22;11.50;99.90
40808;DHT22;26523;52.504;13.498;2023-04-24T04:16:48;11.50;99.90
40808;DHT22;26523;52.504;13.498;2023-04-24T04:19:14;11.50;99.90
40808;DHT22;26523;52.504;13.498;2023-04-24T04:21:40;11.60;99.90
40808;DHT22;26523;52.504;13.498;2023-04-24T04:24:05;11.60;99.90
40808;DHT22;26523;52.504;13.498;2023-04-24T04:26:32;11.70;99.90
40808;DHT22;26523;52.504;13.498;2023-04-24T04:28:59;11.70;99.90
40808;DHT22;26523;52.504;13.498;2023-04-24T04:31:26;11.70;99.90
40808;DHT22;26523;52.504;13.498;2023-04-24T04:33:51;11.70;99.90
40808;DHT22;26523;52.504;13.498;2023-04-24T04:36:17;11.70;99.90
40808;DHT22;26523;52.504;13.498;2023-04-24T04:38:43;11.80;99.90
40808;DHT22;26523;52.504;13.498;2023-04-24T04:41:10;11.80;99.90
40808;DHT22;26523;52.504;13.498;2023-04-24T04:43:36;11.80;99.90
40808;DHT22;26523;52.504;13.498;2023-04-24T04:46:02;11.80;99.90
40808;DHT22;26523;52.504;13.498;2023-04-24T04:48:28;11.80;99.90
40808;DHT22;26523;52.504;13.498;2023-04-24T04:50:57;11.90;99.90
40808;DHT22;26523;52.504;13.498;2023-04-24T04:53:22;11.90;99.90
40808;DHT22;26523;52.504;13.498;2023-04-24T04:55:48;12.00;99.90
40808;DHT22;26523;52.504;13.498;2023-04-24T04:58:14;12.00;99.90
40808;DHT22;26523;52.504;13.498;2023-04-24T05:00:39;12.10;99.90
40808;DHT22;26523;52.504;13.498;2023-04-24T05:03:07;12.20;99.90
40808;DHT22;26523;52.504;13.498;2023-04-24T05:05:32;12.30;99.90
40808;DHT22;26523;52.504;13.498;2023-04-24T05:07:58;12.30;99.90
40808;DHT22;26523;52.504;13.498;2023-04-24T05:10:23;12.30;99.90
40808;DHT22;26523;52.504;13.498;2023-04-24T05:12:49;12.30;99.90
40808;DHT22;26523;52.504;13.498;2023-04-24T05:15:15;12.40;99.90
40808;DHT22;26523;52.504;13.498;2023-04-24T05:17:41;12.50;99.90
40808;DHT22;26523;52.504;13.498;2023-04-24T05:20:07;12.70;99.90
40808;DHT22;26523;52.504;13.498;2023-04-24T05:22:32;12.80;99.90
40808;DHT22;26523;52.504;13.498;2023-04-24T05:24:58;12.90;99.90
40808;DHT22;26523;52.504;13.498;2023-04-24T05:27:24;13.10;99.90
40808;DHT22;26523;52.504;13.498;2023-04-24T05:29:50;13.20;99.90
40808;DHT22;26523;52.504;13.498;2023-04-24T05:32:16;13.30;99.90
40808;DHT22;26523;52.504;13.498;2023-04-24T05:34:42;13.30;99.90
40808;DHT22;26523;52.504;13.498;2023-04-24T05:37:07;13.50;99.90
40808;DHT22;26523;52.504;13.498;2023-04-24T05:39:35;13.60;99.90
40808;DHT22;26523;52.504;13.498;2023-04-24T05:42:01;13.80;99.90
40808;DHT22;26523;52.504;13.498;2023-04-24T05:44:28;13.90;99.90
40808;DHT22;26523;52.504;13.498;2023-04-24T05:46:54;14.00;99.90
40808;DHT22;26523;52.504;13.498;2023-04-24T05:49:21;14.10;99.90
40808;DHT22;26523;52.504;13.498;2023-04-24T05:51:46;14.40;99.90
40808;DHT22;26523;52.504;13.498;2023-04-24T05:54:12;14.60;99.90
40808;DHT22;26523;52.504;13.498;2023-04-24T05:56:38;14.70;99.90
40808;DHT22;26523;52.504;13.498;2023-04-24T05:59:04;14.80;99.90
40808;DHT22;26523;52.504;13.498;2023-04-24T06:01:30;14.90;99.90
40808;DHT22;26523;52.504;13.498;2023-04-24T06:03:57;14.90;99.90
40808;DHT22;26523;52.504;13.498;2023-04-24T06:06:23;15.00;99.90
40808;DHT22;26523;52.504;13.498;2023-04-24T06:08:49;15.20;99.90
40808;DHT22;26523;52.504;13.498;2023-04-24T06:11:15;15.20;99.90
40808;DHT22;26523;52.504;13.498;2023-04-24T06:13:41;15.30;99.90
40808;DHT22;26523;52.504;13.498;2023-04-24T06:16:07;15.30;99.90
40808;DHT22;26523;52.504;13.498;2023-04-24T06:18:32;15.60;99.90
40808;DHT22;26523;52.504;13.498;2023-04-24T06:20:58;15.90;99.90
40808;DHT22;26523;52.504;13.498;2023-04-24T06:23:24;16.20;99.90
40808;DHT22;26523;52.504;13.498;2023-04-24T06:25:49;16.30;99.90
40808;DHT22;26523;52.504;13.498;2023-04-24T06:28:15;16.70;99.90
40808;DHT22;26523;52.504;13.498;2023-04-24T06:30:41;18.10;99.90
40808;DHT22;26523;52.504;13.498;2023-04-24T06:33:07;20.20;99.90
40808;DHT22;26523;52.504;13.498;2023-04-24T06:35:32;20.60;99.90
40808;DHT22;26523;52.504;13.498;2023-04-24T06:37:58;20.70;99.90
40808;DHT22;26523;52.504;13.498;2023-04-24T06:40:24;20.70;99.90
40808;DHT22;26523;52.504;13.498;2023-04-24T06:42:49;20.60;99.90
40808;DHT22;26523;52.504;13.498;2023-04-24T06:45:15;21.40;99.90
40808;DHT22;26523;52.504;13.498;2023-04-24T06:47:41;23.10;99.10
40808;DHT22;26523;52.504;13.498;2023-04-24T06:50:07;25.40;95.00
40808;DHT22;26523;52.504;13.498;2023-04-24T06:52:33;26.90;90.80
40808;DHT22;26523;52.504;13.498;2023-04-24T06:55:03;28.10;86.90
40808;DHT22;26523;52.504;13.498;2023-04-24T06:57:29;29.20;80.70
40808;DHT22;26523;52.504;13.498;2023-04-24T06:59:55;30.00;76.70
40808;DHT22;26523;52.504;13.498;2023-04-24T07:02:21;30.20;73.90
40808;DHT22;26523;52.504;13.498;2023-04-24T07:04:46;31.50;71.60
40808;DHT22;26523;52.504;13.498;2023-04-24T07:07:13;32.40;68.80
40808;DHT22;26523;52.504;13.498;2023-04-24T07:09:42;33.20;66.20
40808;DHT22;26523;52.504;13.498;2023-04-24T07:12:08;33.90;62.90
40808;DHT22;26523;52.504;13.498;2023-04-24T07:14:36;34.00;60.80
40808;DHT22;26523;52.504;13.498;2023-04-24T07:17:03;33.60;60.70
40808;DHT22;26523;52.504;13.498;2023-04-24T07:19:29;33.70;60.00
40808;DHT22;26523;52.504;13.498;2023-04-24T07:21:55;32.90;60.20
40808;DHT22;26523;52.504;13.498;2023-04-24T07:24:20;32.80;60.50
40808;DHT22;26523;52.504;13.498;2023-04-24T07:26:46;33.40;59.40
40808;DHT22;26523;52.504;13.498;2023-04-24T07:29:13;33.10;59.00
40808;DHT22;26523;52.504;13.498;2023-04-24T07:31:39;33.40;58.30
40808;DHT22;26523;52.504;13.498;2023-04-24T07:34:06;32.40;59.20
40808;DHT22;26523;52.504;13.498;2023-04-24T07:36:32;31.90;59.70
40808;DHT22;26523;52.504;13.498;2023-04-24T07:38:57;30.70;61.40
40808;DHT22;26523;52.504;13.498;2023-04-24T07:41:23;29.60;62.40
40808;DHT22;26523;52.504;13.498;2023-04-24T07:43:49;28.10;63.80
40808;DHT22;26523;52.504;13.498;2023-04-24T07:46:16;26.90;66.50
40808;DHT22;26523;52.504;13.498;2023-04-24T07:48:41;25.60;68.10
40808;DHT22;26523;52.504;13.498;2023-04-24T07:51:07;25.30;70.20
40808;DHT22;26523;52.504;13.498;2023-04-24T07:53:35;26.40;68.40
40808;DHT22;26523;52.504;13.498;2023-04-24T07:56:01;28.50;64.90
40808;DHT22;26523;52.504;13.498;2023-04-24T07:58:26;30.10;61.90
40808;DHT22;26523;52.504;13.498;2023-04-24T08:00:52;31.30;59.00
40808;DHT22;26523;52.504;13.498;2023-04-24T08:03:18;32.00;58.30
40808;DHT22;26523;52.504;13.498;2023-04-24T08:05:45;32.20;56.90
40808;DHT22;26523;52.504;13.498;2023-04-24T08:08:11;31.90;56.60
40808;DHT22;26523;52.504;13.498;2023-04-24T08:10:36;31.30;57.30
40808;DHT22;26523;52.504;13.498;2023-04-24T08:13:02;31.30;57.90
40808;DHT22;26523;52.504;13.498;2023-04-24T08:15:28;31.00;57.60
40808;DHT22;26523;52.504;13.498;2023-04-24T08:17:54;30.10;58.50
40808;DHT22;26523;52.504;13.498;2023-04-24T08:20:19;29.00;60.50
40808;DHT22;26523;52.504;13.498;2023-04-24T08:22:45;28.00;61.40
40808;DHT22;26523;52.504;13.498;2023-04-24T08:25:12;26.70;63.00
40808;DHT22;26523;52.504;13.498;2023-04-24T08:27:38;26.00;64.80
40808;DHT22;26523;52.504;13.498;2023-04-24T08:30:05;25.20;67.20
40808;DHT22;26523;52.504;13.498;2023-04-24T08:32:31;25.30;68.40
40808;DHT22;26523;52.504;13.498;2023-04-24T08:34:57;26.90;66.10
40808;DHT22;26523;52.504;13.498;2023-04-24T08:37:23;27.80;64.00
40808;DHT22;26523;52.504;13.498;2023-04-24T08:39:50;27.50;63.60
40808;DHT22;26523;52.504;13.498;2023-04-24T08:42:17;27.30;64.60
40808;DHT22;26523;52.504;13.498;2023-04-24T08:44:43;27.10;64.40
40808;DHT22;26523;52.504;13.498;2023-04-24T08:47:10;28.10;63.60
40808;DHT22;26523;52.504;13.498;2023-04-24T08:49:37;27.70;62.90
40808;DHT22;26523;52.504;13.498;2023-04-24T08:52:04;28.60;62.90
40808;DHT22;26523;52.504;13.498;2023-04-24T08:54:31;29.20;60.90
40808;DHT22;26523;52.504;13.498;2023-04-24T08:57:02;29.00;61.00
40808;DHT22;26523;52.504;13.498;2023-04-24T08:59:29;28.70;61.70
40808;DHT22;26523;52.504;13.498;2023-04-24T09:02:21;28.50;60.70
40808;DHT22;26523;52.504;13.498;2023-04-24T09:04:47;27.60;62.50
40808;DHT22;26523;52.504;13.498;2023-04-24T09:07:14;27.00;63.00
40808;DHT22;26523;52.504;13.498;2023-04-24T09:09:42;26.50;63.50
40808;DHT22;26523;52.504;13.498;2023-04-24T09:12:08;26.50;64.00
40808;DHT22;26523;52.504;13.498;2023-04-24T09:14:36;26.80;62.90
40808;DHT22;26523;52.504;13.498;2023-04-24T09:17:06;27.10;61.90
40808;DHT22;26523;52.504;13.498;2023-04-24T09:19:31;26.70;63.00
40808;DHT22;26523;52.504;13.498;2023-04-24T09:21:57;26.20;63.40
40808;DHT22;26523;52.504;13.498;2023-04-24T09:24:23;25.50;64.20
40808;DHT22;26523;52.504;13.498;2023-04-24T09:26:56;24.20;66.30
40808;DHT22;26523;52.504;13.498;2023-04-24T09:29:27;23.70;68.60
40808;DHT22;26523;52.504;13.498;2023-04-24T09:31:53;23.40;69.00
40808;DHT22;26523;52.504;13.498;2023-04-24T09:34:23;23.30;69.10
40808;DHT22;26523;52.504;13.498;2023-04-24T09:36:50;23.10;70.00
40808;DHT22;26523;52.504;13.498;2023-04-24T09:39:16;22.90;71.10
40808;DHT22;26523;52.504;13.498;2023-04-24T09:41:56;22.50;71.90
40808;DHT22;26523;52.504;13.498;2023-04-24T09:44:27;22.20;72.90
40808;DHT22;26523;52.504;13.498;2023-04-24T09:46:58;21.80;74.00
40808;DHT22;26523;52.504;13.498;2023-04-24T09:49:26;21.20;75.60
40808;DHT22;26523;52.504;13.498;2023-04-24T09:51:52;20.80;77.50
40808;DHT22;26523;52.504;13.498;2023-04-24T09:54:19;20.40;78.00
40808;DHT22;26523;52.504;13.498;2023-04-24T09:56:48;20.00;79.50
40808;DHT22;26523;52.504;13.498;2023-04-24T09:59:15;19.60;80.70
40808;DHT22;26523;52.504;13.498;2023-04-24T10:01:42;19.30;81.80
40808;DHT22;26523;52.504;13.498;2023-04-24T10:04:28;19.10;82.60
40808;DHT22;26523;52.504;13.498;2023-04-24T10:06:55;19.30;82.70
40808;DHT22;26523;52.504;13.498;2023-04-24T10:09:24;19.50;81.50
40808;DHT22;26523;52.504;13.498;2023-04-24T10:11:52;20.00;81.30
40808;DHT22;26523;52.504;13.498;2023-04-24T10:14:21;20.30;80.60
40808;DHT22;26523;52.504;13.498;2023-04-24T10:16:47;20.20;80.00
40808;DHT22;26523;52.504;13.498;2023-04-24T10:19:14;20.50;80.00
40808;DHT22;26523;52.504;13.498;2023-04-24T10:21:42;20.60;78.80
40808;DHT22;26523;52.504;13.498;2023-04-24T10:24:09;20.70;78.60
40808;DHT22;26523;52.504;13.498;2023-04-24T10:26:35;20.90;78.60
40808;DHT22;26523;52.504;13.498;2023-04-24T10:29:03;21.00;78.30
40808;DHT22;26523;52.504;13.498;2023-04-24T10:31:31;20.70;78.10
40808;DHT22;26523;52.504;13.498;2023-04-24T10:33:58;20.60;78.10
40808;DHT22;26523;52.504;13.498;2023-04-24T10:36:25;20.70;78.50
40808;DHT22;26523;52.504;13.498;2023-04-24T10:38:55;21.00;78.40
40808;DHT22;26523;52.504;13.498;2023-04-24T10:41:25;21.00;77.70
40808;DHT22;26523;52.504;13.498;2023-04-24T10:44:07;20.80;76.20
40808;DHT22;26523;52.504;13.498;2023-04-24T10:46:34;20.60;76.90
40808;DHT22;26523;52.504;13.498;2023-04-24T10:49:04;20.80;76.50
40808;DHT22;26523;52.504;13.498;2023-04-24T10:51:51;21.00;76.60
40808;DHT22;26523;52.504;13.498;2023-04-24T10:54:29;21.00;77.20
40808;DHT22;26523;52.504;13.498;2023-04-24T11:02:54;20.50;77.90
40808;DHT22;26523;52.504;13.498;2023-04-24T11:05:53;20.50;78.30
40808;DHT22;26523;52.504;13.498;2023-04-24T11:08:28;20.20;78.70
40808;DHT22;26523;52.504;13.498;2023-04-24T11:11:09;19.90;79.50
40808;DHT22;26523;52.504;13.498;2023-04-24T11:19:04;19.80;80.80
40808;DHT22;26523;52.504;13.498;2023-04-24T11:21:39;20.00;81.10
40808;DHT22;26523;52.504;13.498;2023-04-24T11:27:18;20.50;80.30
40808;DHT22;26523;52.504;13.498;2023-04-24T11:29:49;20.60;80.00
40808;DHT22;26523;52.504;13.498;2023-04-24T11:32:34;20.40;79.10
40808;DHT22;26523;52.504;13.498;2023-04-24T11:35:13;20.30;79.40
40808;DHT22;26523;52.504;13.498;2023-04-24T11:37:43;20.00;79.90
40808;DHT22;26523;52.504;13.498;2023-04-24T11:40:11;19.80;80.60
40808;DHT22;26523;52.504;13.498;2023-04-24T11:42:40;19.20;85.30
40808;DHT22;26523;52.504;13.498;2023-04-24T11:45:17;18.50;93.80
40808;DHT22;26523;52.504;13.498;2023-04-24T11:47:43;17.50;99.90
40808;DHT22;26523;52.504;13.498;2023-04-24T11:50:12;16.30;99.90
40808;DHT22;26523;52.504;13.498;2023-04-24T11:52:43;15.90;99.90
40808;DHT22;26523;52.504;13.498;2023-04-24T11:55:26;15.90;99.90
40808;DHT22;26523;52.504;13.498;2023-04-24T11:57:55;16.10;99.90
40808;DHT22;26523;52.504;13.498;2023-04-24T12:00:27;16.40;99.90
40808;DHT22;26523;52.504;13.498;2023-04-24T12:03:06;16.60;99.90
40808;DHT22;26523;52.504;13.498;2023-04-24T12:05:32;17.00;99.90
40808;DHT22;26523;52.504;13.498;2023-04-24T12:07:59;17.30;99.90
40808;DHT22;26523;52.504;13.498;2023-04-24T12:10:27;17.40;99.90
40808;DHT22;26523;52.504;13.498;2023-04-24T12:12:53;17.40;99.90
40808;DHT22;26523;52.504;13.498;2023-04-24T12:15:20;17.30;99.90
40808;DHT22;26523;52.504;13.498;2023-04-24T12:17:46;17.30;99.90
40808;DHT22;26523;52.504;13.498;2023-04-24T12:20:12;17.20;99.90
40808;DHT22;26523;52.504;13.498;2023-04-24T12:25:16;17.20;99.90
40808;DHT22;26523;52.504;13.498;2023-04-24T12:27:43;17.50;99.90
40808;DHT22;26523;52.504;13.498;2023-04-24T12:30:16;17.60;99.90
40808;DHT22;26523;52.504;13.498;2023-04-24T12:32:49;17.60;99.90
40808;DHT22;26523;52.504;13.498;2023-04-24T12:35:23;17.60;99.90
40808;DHT22;26523;52.504;13.498;2023-04-24T12:37:49;17.80;99.90
40808;DHT22;26523;52.504;13.498;2023-04-24T12:40:17;17.60;99.90
40808;DHT22;26523;52.504;13.498;2023-04-24T12:42:48;17.50;99.90
40808;DHT22;26523;52.504;13.498;2023-04-24T12:45:16;17.40;99.90
40808;DHT22;26523;52.504;13.498;2023-04-24T12:47:44;17.60;99.90
40808;DHT22;26523;52.504;13.498;2023-04-24T12:50:12;17.60;99.90
40808;DHT22;26523;52.504;13.498;2023-04-24T12:52:38;17.80;99.90
40808;DHT22;26523;52.504;13.498;2023-04-24T12:55:05;18.00;99.90
40808;DHT22;26523;52.504;13.498;2023-04-24T12:57:34;18.10;99.90
40808;DHT22;26523;52.504;13.498;2023-04-24T13:00:01;18.10;97.20
40808;DHT22;26523;52.504;13.498;2023-04-24T13:02:28;18.40;96.10
40808;DHT22;26523;52.504;13.498;2023-04-24T13:04:55;18.30;94.60
40808;DHT22;26523;52.504;13.498;2023-04-24T13:07:21;18.70;93.90
40808;DHT22;26523;52.504;13.498;2023-04-24T13:09:49;18.90;93.70
40808;DHT22;26523;52.504;13.498;2023-04-24T13:12:15;19.10;92.90
40808;DHT22;26523;52.504;13.498;2023-04-24T13:14:41;19.00;91.80
40808;DHT22;26523;52.504;13.498;2023-04-24T13:17:07;19.00;91.20
40808;DHT22;26523;52.504;13.498;2023-04-24T13:19:40;19.10;90.80
40808;DHT22;26523;52.504;13.498;2023-04-24T13:22:06;19.50;89.10
40808;DHT22;26523;52.504;13.498;2023-04-24T13:24:32;19.50;86.90
40808;DHT22;26523;52.504;13.498;2023-04-24T13:26:58;19.60;86.40
40808;DHT22;26523;52.504;13.498;2023-04-24T13:29:25;19.80;86.80
40808;DHT22;26523;52.504;13.498;2023-04-24T13:31:52;19.90;85.50
40808;DHT22;26523;52.504;13.498;2023-04-24T13:34:20;19.40;83.90
40808;DHT22;26523;52.504;13.498;2023-04-24T13:36:46;19.10;83.00
40808;DHT22;26523;52.504;13.498;2023-04-24T13:39:12;19.10;83.50
40808;DHT22;26523;52.504;13.498;2023-04-24T13:41:38;18.90;84.10
40808;DHT22;26523;52.504;13.498;2023-04-24T13:44:06;18.80;84.30
40808;DHT22;26523;52.504;13.498;2023-04-24T13:46:32;18.60;83.90
40808;DHT22;26523;52.504;13.498;2023-04-24T13:48:58;18.40;82.20
40808;DHT22;26523;52.504;13.498;2023-04-24T13:51:25;18.20;82.90
40808;DHT22;26523;52.504;13.498;2023-04-24T13:53:53;18.30;82.10
40808;DHT22;26523;52.504;13.498;2023-04-24T13:56:19;18.50;81.80
40808;DHT22;26523;52.504;13.498;2023-04-24T13:58:45;18.50;81.40
40808;DHT22;26523;52.504;13.498;2023-04-24T14:01:12;18.60;81.30
40808;DHT22;26523;52.504;13.498;2023-04-24T14:03:38;18.70;80.80
40808;DHT22;26523;52.504;13.498;2023-04-24T14:06:04;18.70;81.10
40808;DHT22;26523;52.504;13.498;2023-04-24T14:08:31;18.80;81.40
40808;DHT22;26523;52.504;13.498;2023-04-24T14:10:57;18.70;81.50
40808;DHT22;26523;52.504;13.498;2023-04-24T14:13:23;18.60;81.60
40808;DHT22;26523;52.504;13.498;2023-04-24T14:15:49;18.70;81.70
40808;DHT22;26523;52.504;13.498;2023-04-24T14:18:15;18.70;81.20
40808;DHT22;26523;52.504;13.498;2023-04-24T14:20:40;18.60;81.30
40808;DHT22;26523;52.504;13.498;2023-04-24T14:23:06;18.60;81.40
40808;DHT22;26523;52.504;13.498;2023-04-24T14:25:32;18.70;81.70
40808;DHT22;26523;52.504;13.498;2023-04-24T14:27:58;18.60;81.60
40808;DHT22;26523;52.504;13.498;2023-04-24T14:30:23;18.40;81.70
40808;DHT22;26523;52.504;13.498;2023-04-24T14:32:49;18.20;81.30
40808;DHT22;26523;52.504;13.498;2023-04-24T14:35:15;18.10;80.60
40808;DHT22;26523;52.504;13.498;2023-04-24T14:37:40;18.10;81.30
40808;DHT22;26523;52.504;13.498;2023-04-24T14:40:08;18.00;81.30
40808;DHT22;26523;52.504;13.498;2023-04-24T14:42:35;18.00;81.80
40808;DHT22;26523;52.504;13.498;2023-04-24T14:45:01;18.20;80.60
40808;DHT22;26523;52.504;13.498;2023-04-24T14:47:27;18.30;81.20
40808;DHT22;26523;52.504;13.498;2023-04-24T14:49:53;18.40;79.80
40808;DHT22;26523;52.504;13.498;2023-04-24T14:52:18;18.40;80.00
40808;DHT22;26523;52.504;13.498;2023-04-24T14:54:45;18.30;80.80
40808;DHT22;26523;52.504;13.498;2023-04-24T14:57:11;18.10;80.10
40808;DHT22;26523;52.504;13.498;2023-04-24T14:59:37;18.20;80.70
40808;DHT22;26523;52.504;13.498;2023-04-24T15:02:02;18.30;80.30
40808;DHT22;26523;52.504;13.498;2023-04-24T15:04:28;18.40;79.70
40808;DHT22;26523;52.504;13.498;2023-04-24T15:06:55;18.40;79.80
40808;DHT22;26523;52.504;13.498;2023-04-24T15:09:21;18.40;78.90
40808;DHT22;26523;52.504;13.498;2023-04-24T15:11:48;18.30;80.10
40808;DHT22;26523;52.504;13.498;2023-04-24T15:14:15;18.00;79.40
40808;DHT22;26523;52.504;13.498;2023-04-24T15:16:40;17.80;80.00
40808;DHT22;26523;52.504;13.498;2023-04-24T15:19:06;17.70;80.50
40808;DHT22;26523;52.504;13.498;2023-04-24T15:21:32;17.50;81.30
40808;DHT22;26523;52.504;13.498;2023-04-24T15:23:58;17.50;81.30
40808;DHT22;26523;52.504;13.498;2023-04-24T15:26:24;17.50;82.10
40808;DHT22;26523;52.504;13.498;2023-04-24T15:28:50;17.50;82.30
40808;DHT22;26523;52.504;13.498;2023-04-24T15:31:17;17.70;82.20
40808;DHT22;26523;52.504;13.498;2023-04-24T15:33:43;17.80;81.80
40808;DHT22;26523;52.504;13.498;2023-04-24T15:36:09;18.00;80.90